createdAt,value
2023-02-03T00:02:03.940Z,8.67
2023-02-03T00:04:30.898Z,8.00
2023-02-03T00:06:57.901Z,8.00
2023-02-03T00:09:24.838Z,4.25
2023-02-03T00:11:51.864Z,6.67
2023-02-03T00:14:18.761Z,7.33
2023-02-03T00:16:45.720Z,8.33
2023-02-03T00:19:12.722Z,7.67
2023-02-03T00:21:39.674Z,8.00
2023-02-03T00:24:06.754Z,5.33
2023-02-03T00:26:33.673Z,9.00
2023-02-03T00:29:00.896Z,6.00
2023-02-03T00:31:27.954Z,8.00
2023-02-03T00:33:56.776Z,9.00
2023-02-03T00:36:25.521Z,8.00
2023-02-03T00:38:52.682Z,6.00
2023-02-03T00:41:21.024Z,6.33
2023-02-03T00:43:49.164Z,6.33
2023-02-03T00:46:16.845Z,8.00
2023-02-03T00:48:43.809Z,8.00
2023-02-03T00:51:10.946Z,8.00
2023-02-03T00:53:37.846Z,8.00
2023-02-03T00:56:05.069Z,9.00
2023-02-03T00:58:32.039Z,9.00
2023-02-03T01:00:59.060Z,6.00
2023-02-03T01:03:26.349Z,8.00
2023-02-03T01:05:53.313Z,8.00
2023-02-03T01:08:20.502Z,5.00
2023-02-03T01:10:47.424Z,12.33
2023-02-03T01:13:14.325Z,11.00
2023-02-03T01:15:48.654Z,11.33
2023-02-03T01:18:15.616Z,11.33
2023-02-03T01:20:42.597Z,9.00
2023-02-03T01:23:09.494Z,11.67
2023-02-03T01:25:36.846Z,13.00
2023-02-03T01:28:03.765Z,9.00
2023-02-03T01:30:30.765Z,8.00
2023-02-03T01:32:57.789Z,8.33
2023-02-03T01:35:24.739Z,9.00
2023-02-03T01:37:51.626Z,8.00
2023-02-03T01:40:19.086Z,7.00
2023-02-03T01:42:46.084Z,8.00
2023-02-03T01:45:14.438Z,6.33
2023-02-03T01:47:50.167Z,6.00
2023-02-03T01:50:19.627Z,5.00
2023-02-03T01:52:57.273Z,9.00
2023-02-03T01:55:31.515Z,9.00
2023-02-03T01:58:07.802Z,9.00
2023-02-03T02:00:34.889Z,6.00
2023-02-03T02:03:04.765Z,7.00
2023-02-03T02:05:36.588Z,5.00
2023-02-03T02:08:29.560Z,6.00
2023-02-03T02:11:13.477Z,9.00
2023-02-03T02:13:57.064Z,6.00
2023-02-03T02:17:06.402Z,3.33
2023-02-03T02:20:22.964Z,4.33
2023-02-03T02:23:33.838Z,5.00
2023-02-03T02:26:22.450Z,4.00
2023-02-03T02:29:05.172Z,5.00
2023-02-03T02:31:48.259Z,4.67
2023-02-03T02:34:41.079Z,5.33
2023-02-03T02:37:17.763Z,5.00
2023-02-03T02:39:58.729Z,4.00
2023-02-03T02:42:37.354Z,4.00
2023-02-03T02:45:29.851Z,7.33
2023-02-03T02:48:08.849Z,5.00
2023-02-03T02:50:41.763Z,4.00
2023-02-03T02:53:10.610Z,2.00
2023-02-03T02:55:40.710Z,1.00
2023-02-03T02:58:12.119Z,1.25
2023-02-03T03:00:41.457Z,4.33
2023-02-03T03:03:17.532Z,1.25
2023-02-03T03:05:51.515Z,2.00
2023-02-03T03:08:25.230Z,4.00
2023-02-03T03:10:54.174Z,6.00
2023-02-03T03:13:27.945Z,6.00
2023-02-03T03:15:58.964Z,6.33
2023-02-03T03:18:36.447Z,6.33
2023-02-03T03:21:07.235Z,4.67
2023-02-03T03:23:39.999Z,7.00
2023-02-03T03:26:18.399Z,4.67
2023-02-03T03:28:58.258Z,5.00
2023-02-03T03:31:25.369Z,7.00
2023-02-03T03:33:52.454Z,2.00
2023-02-03T03:36:28.058Z,4.00
2023-02-03T03:39:13.945Z,3.33
2023-02-03T03:42:08.838Z,1.33
2023-02-03T03:45:10.448Z,2.00
2023-02-03T03:47:48.719Z,4.67
2023-02-03T03:50:23.000Z,2.00
2023-02-03T03:52:52.363Z,2.00
2023-02-03T03:55:20.880Z,4.00
2023-02-03T03:58:06.645Z,4.00
2023-02-03T04:00:37.994Z,5.00
2023-02-03T04:03:28.647Z,3.33
2023-02-03T04:05:55.569Z,1.00
2023-02-03T04:08:22.490Z,1.00
2023-02-03T04:10:49.369Z,1.00
2023-02-03T04:13:16.550Z,1.00
2023-02-03T04:15:43.441Z,1.00
2023-02-03T04:18:13.721Z,1.00
2023-02-03T04:20:40.735Z,1.00
2023-02-03T04:23:08.470Z,1.00
2023-02-03T04:25:35.503Z,1.00
2023-02-03T04:28:02.564Z,0.00
2023-02-03T04:30:29.799Z,0.00
2023-02-03T04:32:56.853Z,0.00
2023-02-03T04:35:23.999Z,0.67
2023-02-03T04:37:50.947Z,0.67
2023-02-03T04:40:18.211Z,0.00
2023-02-03T04:42:45.259Z,0.00
2023-02-03T04:45:12.810Z,0.00
2023-02-03T04:47:41.035Z,0.00
2023-02-03T04:50:08.667Z,0.00
2023-02-03T04:52:35.544Z,0.00
2023-02-03T04:55:04.232Z,0.00
2023-02-03T04:57:31.356Z,0.00
2023-02-03T04:59:58.398Z,0.00
2023-02-03T05:02:25.343Z,0.00
2023-02-03T05:04:53.231Z,0.00
2023-02-03T05:07:20.170Z,0.00
2023-02-03T05:09:47.294Z,0.00
2023-02-03T05:12:14.205Z,0.00
2023-02-03T05:14:41.106Z,0.00
2023-02-03T05:17:07.985Z,0.00
2023-02-03T05:19:34.926Z,0.00
2023-02-03T05:22:01.835Z,0.00
2023-02-03T05:24:28.744Z,0.00
2023-02-03T05:26:55.701Z,0.00
2023-02-03T05:29:22.603Z,0.00
2023-02-03T05:31:49.628Z,1.00
2023-02-03T05:34:16.554Z,0.00
2023-02-03T05:36:43.430Z,0.00
2023-02-03T05:39:10.441Z,0.00
2023-02-03T05:41:58.296Z,0.00
2023-02-03T05:44:27.365Z,0.00
2023-02-03T05:46:56.258Z,1.00
2023-02-03T05:49:24.209Z,2.00
2023-02-03T05:51:54.014Z,2.00
2023-02-03T05:54:21.271Z,4.00
2023-02-03T05:56:48.188Z,2.00
2023-02-03T05:59:15.431Z,4.00
2023-02-03T06:01:42.329Z,4.00
2023-02-03T06:04:09.644Z,5.00
2023-02-03T06:06:37.021Z,5.00
2023-02-03T06:09:06.184Z,3.33
2023-02-03T06:11:33.626Z,5.00
2023-02-03T06:14:01.131Z,5.00
2023-02-03T06:16:29.301Z,4.00
2023-02-03T06:19:01.110Z,3.33
2023-02-03T06:21:28.816Z,0.00
2023-02-03T06:23:56.868Z,4.00
2023-02-03T06:26:25.241Z,1.00
2023-02-03T06:28:52.211Z,4.00
2023-02-03T06:31:19.318Z,5.67
2023-02-03T06:33:46.356Z,5.00
2023-02-03T06:36:13.265Z,5.00
2023-02-03T06:38:40.186Z,5.00
2023-02-03T06:41:07.088Z,7.00
2023-02-03T06:43:35.667Z,8.00
2023-02-03T06:46:02.836Z,7.00
2023-02-03T06:48:29.945Z,2.00
2023-02-03T06:50:57.023Z,7.00
2023-02-03T06:53:24.050Z,8.00
2023-02-03T06:55:51.056Z,8.00
2023-02-03T06:58:18.131Z,9.00
2023-02-03T07:00:44.983Z,8.67
2023-02-03T07:03:11.966Z,7.00
2023-02-03T07:05:40.421Z,6.00
2023-02-03T07:08:07.287Z,5.67
2023-02-03T07:10:34.239Z,1.00
2023-02-03T07:13:06.419Z,4.33
2023-02-03T07:15:34.094Z,6.00
2023-02-03T07:18:01.320Z,5.00
2023-02-03T07:20:29.625Z,5.00
2023-02-03T07:22:58.102Z,7.00
2023-02-03T07:25:25.850Z,5.00
2023-02-03T07:27:52.890Z,5.00
2023-02-03T07:30:20.115Z,7.00
2023-02-03T07:32:49.417Z,5.00
2023-02-03T07:35:17.073Z,4.67
2023-02-03T07:37:44.113Z,6.00
2023-02-03T07:40:12.723Z,7.67
2023-02-03T07:42:48.801Z,8.00
2023-02-03T07:45:17.754Z,8.00
2023-02-03T07:47:44.979Z,8.00
2023-02-03T07:50:13.106Z,5.00
2023-02-03T07:52:40.400Z,5.00
2023-02-03T07:55:08.133Z,7.00
2023-02-03T07:57:35.177Z,6.33
2023-02-03T08:00:02.195Z,4.00
2023-02-03T08:02:29.579Z,4.25
2023-02-03T08:04:58.315Z,4.50
2023-02-03T08:07:25.420Z,5.00
2023-02-03T08:09:52.346Z,5.67
2023-02-03T08:12:19.277Z,5.75
2023-02-03T08:14:46.239Z,5.00
2023-02-03T08:17:13.191Z,5.67
2023-02-03T08:19:40.157Z,4.50
2023-02-03T08:22:07.095Z,5.50
2023-02-03T08:24:33.999Z,8.00
2023-02-03T08:27:01.857Z,7.33
2023-02-03T08:29:28.765Z,6.00
2023-02-03T08:31:56.433Z,7.33
2023-02-03T08:34:23.415Z,4.67
2023-02-03T08:36:50.263Z,6.00
2023-02-03T08:39:17.192Z,4.25
2023-02-03T08:41:44.149Z,5.25
2023-02-03T08:44:11.172Z,4.25
2023-02-03T08:46:43.727Z,4.00
2023-02-03T08:49:11.426Z,4.00
2023-02-03T08:51:38.603Z,1.00
2023-02-03T08:54:05.779Z,4.25
2023-02-03T08:56:34.376Z,4.00
2023-02-03T08:59:01.588Z,6.00
2023-02-03T09:01:29.113Z,8.67
2023-02-03T09:03:56.370Z,9.00
2023-02-03T09:06:26.146Z,4.00
2023-02-03T09:08:53.339Z,5.00
2023-02-03T09:11:20.423Z,7.25
2023-02-03T09:13:48.879Z,10.00
2023-02-03T09:16:18.178Z,11.00
2023-02-03T09:18:46.519Z,6.75
2023-02-03T09:21:23.903Z,8.33
2023-02-03T09:24:01.982Z,10.50
2023-02-03T09:26:29.096Z,6.50
2023-02-03T09:28:56.252Z,7.00
2023-02-03T09:31:23.471Z,8.00
2023-02-03T09:33:50.426Z,4.50
2023-02-03T09:36:17.462Z,5.00
2023-02-03T09:38:44.470Z,9.75
2023-02-03T09:41:12.463Z,8.00
2023-02-03T09:44:05.331Z,5.00
2023-02-03T09:46:42.463Z,6.25
2023-02-03T09:49:15.699Z,8.50
2023-02-03T09:51:55.457Z,5.75
2023-02-03T09:54:38.977Z,8.00
2023-02-03T09:57:14.106Z,7.00
2023-02-03T09:59:41.154Z,6.50
2023-02-03T10:02:36.103Z,4.00
2023-02-03T10:05:25.676Z,8.00
2023-02-03T10:08:19.127Z,7.00
2023-02-03T10:11:10.613Z,6.00
2023-02-03T10:13:49.444Z,6.00
2023-02-03T10:16:42.510Z,0.00
2023-02-03T10:19:20.314Z,5.00
2023-02-03T10:21:52.729Z,5.00
2023-02-03T10:24:25.807Z,1.00
2023-02-03T10:26:53.800Z,5.75
2023-02-03T10:29:38.842Z,5.00
2023-02-03T10:32:14.900Z,6.75
2023-02-03T10:34:47.550Z,5.75
2023-02-03T10:37:42.099Z,5.75
2023-02-03T10:40:13.665Z,5.00
2023-02-03T10:42:59.736Z,6.00
2023-02-03T10:45:26.740Z,2.00
2023-02-03T10:47:56.225Z,5.00
2023-02-03T10:50:32.102Z,5.00
2023-02-03T10:53:32.938Z,5.25
2023-02-03T10:56:10.351Z,5.00
2023-02-03T10:58:39.551Z,4.00
2023-02-03T11:01:15.574Z,5.00
2023-02-03T11:03:45.374Z,4.50
2023-02-03T11:06:17.636Z,5.25
2023-02-03T11:08:49.765Z,5.00
2023-02-03T11:11:23.863Z,8.33
2023-02-03T11:14:16.143Z,8.00
2023-02-03T11:16:44.675Z,8.00
2023-02-03T11:19:19.208Z,9.75
2023-02-03T11:21:52.622Z,5.00
2023-02-03T11:24:28.859Z,8.00
2023-02-03T11:27:05.021Z,8.33
2023-02-03T11:29:35.003Z,6.00
2023-02-03T11:32:06.997Z,6.00
2023-02-03T11:34:38.264Z,5.00
2023-02-03T11:37:30.112Z,6.00
2023-02-03T11:40:07.241Z,8.00
2023-02-03T11:42:35.762Z,9.00
2023-02-03T11:45:18.088Z,7.33
2023-02-03T11:47:54.269Z,8.00
2023-02-03T11:50:44.252Z,6.00
2023-02-03T11:53:32.720Z,9.00
2023-02-03T11:56:26.780Z,6.00
2023-02-03T11:59:12.373Z,8.00
2023-02-03T12:01:50.798Z,7.33
2023-02-03T12:04:43.148Z,8.00
2023-02-03T12:07:31.481Z,8.00
2023-02-03T12:10:32.122Z,6.00
2023-02-03T12:13:31.963Z,4.33
2023-02-03T12:16:14.748Z,6.67
2023-02-03T12:18:49.813Z,9.00
2023-02-03T12:21:29.800Z,9.00
2023-02-03T12:23:59.414Z,8.00
2023-02-03T12:27:18.732Z,6.67
2023-02-03T12:29:54.189Z,8.67
2023-02-03T12:32:32.509Z,5.00
2023-02-03T12:35:13.959Z,9.00
2023-02-03T12:37:53.233Z,10.00
2023-02-03T12:40:49.247Z,9.67
2023-02-03T12:43:27.058Z,7.25
2023-02-03T12:46:10.471Z,6.00
2023-02-03T12:48:56.877Z,7.50
2023-02-03T12:51:35.721Z,6.00
2023-02-03T12:54:12.503Z,8.00
2023-02-03T12:56:44.185Z,5.00
2023-02-03T12:59:19.697Z,4.75
2023-02-03T13:02:05.218Z,4.50
2023-02-03T13:04:43.704Z,4.00
2023-02-03T13:07:36.566Z,4.25
2023-02-03T13:10:15.769Z,4.75
2023-02-03T13:12:46.903Z,5.00
2023-02-03T13:15:33.057Z,5.00
2023-02-03T13:18:51.369Z,5.50
2023-02-03T13:21:18.438Z,5.00
2023-02-03T13:23:47.715Z,6.00
2023-02-03T13:26:36.052Z,4.50
2023-02-03T13:29:27.110Z,5.00
2023-02-03T13:32:36.863Z,4.50
2023-02-03T13:35:33.336Z,6.00
2023-02-03T13:38:22.287Z,4.00
2023-02-03T13:41:22.780Z,2.00
2023-02-03T13:43:52.725Z,2.00
2023-02-03T13:46:32.918Z,1.50
2023-02-03T13:49:03.433Z,5.00
2023-02-03T13:51:52.704Z,2.50
2023-02-03T13:54:43.828Z,2.00
2023-02-03T13:57:45.962Z,3.75
2023-02-03T14:00:45.569Z,4.00
2023-02-03T14:03:35.593Z,4.00
2023-02-03T14:06:03.380Z,4.00
2023-02-03T14:08:30.366Z,4.75
2023-02-03T14:11:34.904Z,4.50
2023-02-03T14:14:04.747Z,4.50
2023-02-03T14:16:36.465Z,4.00
2023-02-03T14:19:04.198Z,2.00
2023-02-03T14:21:53.523Z,2.00
2023-02-03T14:24:21.859Z,3.00
2023-02-03T14:26:52.650Z,4.00
2023-02-03T14:29:36.905Z,2.00
2023-02-03T14:32:09.861Z,2.00
2023-02-03T14:34:49.000Z,2.00
2023-02-03T14:37:26.672Z,4.00
2023-02-03T14:40:09.910Z,2.00
2023-02-03T14:43:11.545Z,3.75
2023-02-03T14:45:46.279Z,4.75
2023-02-03T14:48:39.975Z,4.50
2023-02-03T14:51:16.507Z,4.00
2023-02-03T14:54:08.701Z,4.00
2023-02-03T14:57:18.590Z,4.00
2023-02-03T14:59:51.369Z,4.00
2023-02-03T15:02:23.392Z,5.00
2023-02-03T15:04:52.192Z,4.00
2023-02-03T15:07:54.492Z,5.00
2023-02-03T15:10:24.820Z,6.25
2023-02-03T15:12:54.534Z,5.00
2023-02-03T15:15:30.127Z,6.00
2023-02-03T15:18:00.154Z,6.50
2023-02-03T15:20:33.390Z,6.50
2023-02-03T15:23:01.177Z,6.50
2023-02-03T15:25:31.244Z,5.00
2023-02-03T15:28:22.307Z,7.00
2023-02-03T15:31:03.539Z,7.33
2023-02-03T15:33:33.277Z,9.00
2023-02-03T15:36:07.336Z,9.00
2023-02-03T15:38:45.144Z,5.00
2023-02-03T15:41:23.355Z,8.00
2023-02-03T15:44:00.932Z,6.00
2023-02-03T15:46:37.209Z,5.75
2023-02-03T15:49:13.362Z,8.00
2023-02-03T15:52:01.150Z,8.00
2023-02-03T15:54:42.075Z,5.00
2023-02-03T15:57:17.213Z,9.00
2023-02-03T15:59:52.890Z,8.00
2023-02-03T16:02:21.728Z,6.50
2023-02-03T16:04:50.537Z,6.00
2023-02-03T16:07:22.799Z,9.00
2023-02-03T16:09:53.905Z,14.00
2023-02-03T16:12:31.962Z,11.67
2023-02-03T16:15:00.833Z,10.00
2023-02-03T16:17:41.913Z,13.00
2023-02-03T16:20:12.006Z,13.67
2023-02-03T16:22:44.259Z,14.00
2023-02-03T16:25:18.956Z,14.00
2023-02-03T16:28:18.957Z,8.67
2023-02-03T16:31:18.281Z,12.00
2023-02-03T16:34:05.415Z,13.00
2023-02-03T16:36:50.960Z,16.67
2023-02-03T16:39:36.533Z,16.00
2023-02-03T16:42:32.759Z,13.00
2023-02-03T16:45:18.069Z,10.67
2023-02-03T16:48:05.229Z,13.67
2023-02-03T16:50:53.449Z,14.00
2023-02-03T16:53:30.593Z,11.50
2023-02-03T16:56:00.639Z,9.50
2023-02-03T16:58:28.240Z,9.00
2023-02-03T17:00:56.957Z,9.25
2023-02-03T17:03:27.490Z,11.25
2023-02-03T17:05:56.174Z,13.00
2023-02-03T17:08:25.552Z,8.50
2023-02-03T17:10:52.555Z,9.00
2023-02-03T17:13:21.788Z,10.00
2023-02-03T17:15:55.138Z,11.00
2023-02-03T17:18:22.264Z,13.00
2023-02-03T17:20:49.523Z,11.00
2023-02-03T17:23:17.401Z,11.25
2023-02-03T17:25:45.851Z,13.00
2023-02-03T17:28:16.665Z,14.00
2023-02-03T17:30:44.156Z,12.00
2023-02-03T17:33:14.693Z,13.25
2023-02-03T17:35:43.860Z,12.25
2023-02-03T17:38:13.013Z,18.00
2023-02-03T17:54:37.525Z,14.25
2023-02-03T17:57:04.809Z,17.00
2023-02-03T17:59:31.874Z,15.67
2023-02-03T18:01:58.865Z,13.25
2023-02-03T18:04:26.356Z,15.00
2023-02-03T18:06:54.710Z,14.00
2023-02-03T18:09:21.883Z,14.25
2023-02-03T18:11:48.961Z,17.00
2023-02-03T18:14:17.000Z,14.25
2023-02-03T18:16:44.758Z,17.50
2023-02-03T18:19:14.632Z,14.00
2023-02-03T18:21:42.774Z,10.00
2023-02-03T18:24:12.476Z,10.75
2023-02-03T18:26:50.876Z,11.00
2023-02-03T18:29:18.634Z,16.00
2023-02-03T18:31:46.106Z,13.00
2023-02-03T18:34:13.427Z,13.50
2023-02-03T18:39:14.550Z,14.75
2023-02-03T18:41:41.641Z,13.75
2023-02-03T18:44:08.780Z,13.00
2023-02-03T18:46:35.826Z,15.00
2023-02-03T18:49:02.898Z,15.00
2023-02-03T18:51:30.058Z,15.25
2023-02-03T18:53:58.583Z,18.00
2023-02-03T18:56:35.332Z,14.50
2023-02-03T18:59:08.240Z,14.75
2023-02-03T19:01:36.024Z,14.00
2023-02-03T19:04:03.741Z,15.00
2023-02-03T19:06:32.110Z,2.00
2023-02-03T19:09:00.323Z,14.00
2023-02-03T19:11:27.392Z,13.50
2023-02-03T19:13:54.378Z,12.00
2023-02-03T19:16:21.869Z,14.25
2023-02-03T19:18:48.866Z,6.25
2023-02-03T19:21:16.106Z,9.75
2023-02-03T19:23:43.231Z,10.25
2023-02-03T19:26:12.238Z,9.50
2023-02-03T19:28:40.540Z,9.75
2023-02-03T19:31:13.357Z,9.00
2023-02-03T19:33:40.482Z,7.00
2023-02-03T19:36:08.632Z,10.00
2023-02-03T19:38:36.372Z,12.25
2023-02-03T19:41:04.008Z,11.00
2023-02-03T19:43:31.611Z,11.00
2023-02-03T19:45:59.581Z,9.00
2023-02-03T19:48:26.630Z,10.75
2023-02-03T19:50:53.816Z,9.25
2023-02-03T19:53:21.794Z,9.00
2023-02-03T19:55:48.915Z,6.75
2023-02-03T19:58:16.328Z,8.00
2023-02-03T20:00:44.086Z,9.00
2023-02-03T20:03:11.405Z,9.75
2023-02-03T20:05:38.875Z,7.00
2023-02-03T20:08:06.505Z,11.00
2023-02-03T20:10:33.805Z,7.25
2023-02-03T20:13:01.068Z,10.00
2023-02-03T20:15:28.256Z,10.00
2023-02-03T20:17:55.361Z,9.75
2023-02-03T20:20:23.195Z,8.50
2023-02-03T20:22:50.263Z,6.50
2023-02-03T20:25:17.678Z,14.00
2023-02-03T20:27:44.705Z,9.50
2023-02-03T20:30:12.446Z,12.00
2023-02-03T20:32:39.898Z,9.00
2023-02-03T20:35:07.607Z,13.00
2023-02-03T20:37:36.332Z,15.00
2023-02-03T20:40:12.977Z,12.50
2023-02-03T20:42:40.311Z,14.00
2023-02-03T20:45:15.746Z,13.33
2023-02-03T20:47:43.179Z,16.33
2023-02-03T20:50:16.938Z,14.00
2023-02-03T20:52:45.260Z,12.33
2023-02-03T20:55:14.710Z,9.33
2023-02-03T20:57:42.146Z,10.33
2023-02-03T21:00:20.906Z,14.00
2023-02-03T21:03:06.794Z,13.00
2023-02-03T21:05:39.800Z,17.33
2023-02-03T21:08:12.375Z,13.00
2023-02-03T21:10:41.116Z,14.00
2023-02-03T21:13:28.081Z,11.00
2023-02-03T21:16:02.915Z,13.00
2023-02-03T21:18:44.589Z,13.00
2023-02-03T21:21:17.104Z,10.50
2023-02-03T21:23:47.911Z,13.00
2023-02-03T21:26:22.436Z,13.00
2023-02-03T21:28:51.896Z,11.75
2023-02-03T21:31:23.470Z,13.50
2023-02-03T21:33:51.528Z,13.00
2023-02-03T21:36:22.265Z,12.50
2023-02-03T21:38:55.371Z,11.50
2023-02-03T21:41:24.673Z,10.25
2023-02-03T21:43:55.994Z,5.00
2023-02-03T21:46:28.781Z,11.00
2023-02-03T21:49:00.149Z,13.00
2023-02-03T21:51:38.405Z,0.00
2023-02-03T21:54:24.123Z,9.25
2023-02-03T21:56:51.209Z,7.00
2023-02-03T21:59:28.727Z,9.00
2023-02-03T22:01:57.852Z,12.00
2023-02-03T22:04:28.883Z,10.25
2023-02-03T22:06:56.741Z,9.75
2023-02-03T22:09:26.073Z,11.00
2023-02-03T22:11:53.453Z,9.00
2023-02-03T22:14:23.352Z,9.00
2023-02-03T22:16:50.613Z,7.25
2023-02-03T22:19:17.819Z,7.00
2023-02-03T22:21:45.393Z,7.00
2023-02-03T22:24:12.598Z,9.50
2023-02-03T22:26:39.527Z,9.00
2023-02-03T22:29:06.601Z,3.00
2023-02-03T22:31:33.896Z,10.75
2023-02-03T22:34:00.982Z,9.00
2023-02-03T22:36:27.954Z,9.00
2023-02-03T22:38:54.951Z,9.75
2023-02-03T22:41:21.928Z,9.25
2023-02-03T22:43:48.859Z,7.00
2023-02-03T22:46:16.044Z,6.25
2023-02-03T22:48:43.070Z,10.75
2023-02-03T22:51:10.139Z,9.00
2023-02-03T22:53:39.219Z,7.00
2023-02-03T22:56:06.351Z,10.00
2023-02-03T22:58:33.334Z,3.00
2023-02-03T23:01:00.458Z,6.00
2023-02-03T23:03:27.459Z,8.00
2023-02-03T23:05:54.493Z,7.00
2023-02-03T23:08:21.617Z,6.25
2023-02-03T23:10:48.623Z,6.00
2023-02-03T23:13:15.611Z,8.25
2023-02-03T23:15:42.681Z,7.00
2023-02-03T23:18:10.916Z,9.25
2023-02-03T23:20:37.939Z,6.75
2023-02-03T23:23:04.904Z,5.50
2023-02-03T23:25:31.919Z,7.00
2023-02-03T23:27:58.946Z,6.50
2023-02-03T23:30:25.888Z,6.00
2023-02-03T23:32:52.843Z,7.00
2023-02-03T23:35:38.158Z,6.50
2023-02-03T23:38:05.120Z,9.00
2023-02-03T23:40:32.302Z,7.00
2023-02-03T23:42:59.489Z,6.00
2023-02-03T23:45:26.442Z,5.75
2023-02-03T23:47:53.543Z,5.00
2023-02-03T23:50:20.662Z,5.25
2023-02-03T23:52:48.085Z,6.00
2023-02-03T23:55:18.131Z,2.00
2023-02-03T23:57:45.802Z,4.00
